Time;durP1;ratioP1;P1;durP2;ratioP2;P2;SDS_P1;SDS_P2;PMS_P1;PMS_P2;Temp;Humidity;BMP_temperature;BMP_pressure;BME280_temperature;BME280_humidity;BME280_pressure;Samples;Min_cycle;Max_cycle;Signal;HPM_P1;HPM_P2
2021/10/04 00:00:28;;;;;;;;;29.67;29.00;20.70;34.70;;;;;;5116850;28;8785;-61
2021/10/04 00:02:54;;;;;;;;;28.67;28.67;20.70;34.60;;;;;;5116999;28;8870;-61
2021/10/04 00:05:20;;;;;;;;;32.00;32.00;20.70;34.50;;;;;;5117040;28;8858;-60
2021/10/04 00:07:46;;;;;;;;;28.00;28.00;20.70;34.50;;;;;;5116966;28;8745;-60
2021/10/04 00:10:17;;;;;;;;;29.33;29.33;20.70;34.40;;;;;;5116703;28;8908;-61
2021/10/04 00:12:43;;;;;;;;;30.33;29.00;20.60;34.30;;;;;;5116822;28;8797;-60
2021/10/04 00:15:12;;;;;;;;;26.33;26.33;20.50;34.80;;;;;;5116838;28;9439;-60
2021/10/04 00:17:39;;;;;;;;;28.00;28.00;20.50;35.00;;;;;;5116480;28;8770;-61
2021/10/04 00:20:08;;;;;;;;;24.33;24.33;20.50;34.90;;;;;;5116478;28;8765;-60
2021/10/04 00:22:34;;;;;;;;;26.33;26.33;20.60;34.80;;;;;;5116467;28;8758;-61
2021/10/04 00:25:00;;;;;;;;;30.67;30.00;20.60;34.70;;;;;;5116578;28;8784;-60
2021/10/04 00:27:26;;;;;;;;;31.33;31.33;20.50;34.80;;;;;;5116462;28;8769;-60
2021/10/04 00:29:52;;;;;;;;;26.00;26.00;20.50;35.20;;;;;;5116282;28;8776;-60
2021/10/04 00:32:18;;;;;;;;;27.00;27.00;20.50;35.60;;;;;;5116010;28;8812;-60
2021/10/04 00:34:43;;;;;;;;;31.33;31.33;20.50;35.90;;;;;;5116197;28;8784;-60
2021/10/04 00:37:09;;;;;;;;;32.67;32.00;20.40;35.90;;;;;;5116439;28;8824;-60
2021/10/04 00:39:35;;;;;;;;;32.67;32.00;20.30;36.30;;;;;;5115949;28;8860;-60
2021/10/04 00:42:02;;;;;;;;;30.33;29.67;20.20;36.80;;;;;;5116224;28;8758;-60
2021/10/04 00:44:27;;;;;;;;;26.00;26.00;20.20;36.80;;;;;;5115817;28;8869;-60
2021/10/04 00:46:54;;;;;;;;;25.67;25.67;20.30;36.70;;;;;;5115949;28;9586;-60
2021/10/04 00:49:20;;;;;;;;;28.00;28.00;20.10;36.70;;;;;;5116237;28;8808;-60
2021/10/04 00:51:46;;;;;;;;;29.67;29.67;20.00;37.20;;;;;;5116033;28;8813;-60
2021/10/04 00:54:11;;;;;;;;;20.00;20.00;20.00;37.20;;;;;;5116104;28;8749;-60
2021/10/04 00:56:37;;;;;;;;;26.00;26.00;19.90;37.40;;;;;;5115745;28;8770;-60
2021/10/04 00:59:03;;;;;;;;;30.67;30.33;20.00;37.70;;;;;;5116035;28;8737;-60
2021/10/04 01:01:30;;;;;;;;;26.33;26.00;19.90;37.80;;;;;;5115624;28;9766;-60
2021/10/04 01:03:58;;;;;;;;;31.00;31.00;19.90;38.10;;;;;;5115927;28;8769;-60
2021/10/04 01:06:28;;;;;;;;;30.33;30.00;19.70;38.50;;;;;;5115902;28;8746;-60
2021/10/04 01:08:54;;;;;;;;;25.33;25.33;19.60;39.00;;;;;;5115786;28;8753;-60
2021/10/04 01:11:20;;;;;;;;;28.00;28.00;19.50;39.60;;;;;;5115453;28;8934;-60
2021/10/04 01:13:47;;;;;;;;;30.67;30.67;19.60;39.60;;;;;;5115437;28;8749;-60
2021/10/04 01:16:13;;;;;;;;;35.33;34.33;19.60;39.40;;;;;;5115415;28;8860;-60
2021/10/04 01:18:39;;;;;;;;;33.00;30.33;19.60;39.10;;;;;;5115302;28;8778;-60
2021/10/04 01:21:05;;;;;;;;;25.33;25.33;19.60;39.00;;;;;;5115229;28;8774;-60
2021/10/04 01:23:32;;;;;;;;;31.00;31.00;19.70;39.00;;;;;;5115243;28;8750;-60
2021/10/04 01:25:58;;;;;;;;;32.33;31.33;19.60;38.80;;;;;;5115550;28;8754;-60
2021/10/04 01:28:25;;;;;;;;;30.33;30.00;19.60;38.90;;;;;;5115246;28;8749;-61
2021/10/04 01:30:51;;;;;;;;;30.00;30.00;19.60;39.20;;;;;;5115314;28;8766;-61
2021/10/04 01:33:17;;;;;;;;;28.00;28.00;19.60;38.90;;;;;;5115431;28;8793;-60
2021/10/04 01:35:43;;;;;;;;;28.00;28.00;19.50;38.80;;;;;;5115360;28;8758;-60
2021/10/04 01:38:09;;;;;;;;;28.33;28.33;19.50;38.90;;;;;;5115338;28;8773;-60
2021/10/04 01:40:35;;;;;;;;;29.33;29.33;19.50;38.90;;;;;;5114931;28;8817;-60
2021/10/04 01:43:01;;;;;;;;;27.00;27.00;19.40;38.90;;;;;;5115009;28;8765;-60
2021/10/04 01:45:28;;;;;;;;;30.00;30.00;19.30;39.00;;;;;;5115066;28;8765;-60
2021/10/04 01:47:59;;;;;;;;;33.00;32.33;19.30;39.30;;;;;;5115186;28;8766;-60
2021/10/04 01:50:29;;;;;;;;;28.67;28.00;19.30;39.00;;;;;;5115002;28;8778;-60
2021/10/04 01:52:55;;;;;;;;;29.33;29.33;19.30;38.80;;;;;;5115118;28;8823;-60
2021/10/04 01:55:21;;;;;;;;;26.33;26.33;19.30;39.10;;;;;;5114932;28;8754;-60
2021/10/04 01:57:47;;;;;;;;;28.00;28.00;19.30;39.10;;;;;;5114243;28;8781;-60
2021/10/04 02:00:16;;;;;;;;;28.33;27.33;19.20;39.20;;;;;;5114839;28;8876;-60
2021/10/04 02:02:44;;;;;;;;;30.00;29.00;19.20;39.40;;;;;;5115056;28;8840;-60
2021/10/04 02:05:11;;;;;;;;;32.67;32.00;19.10;39.30;;;;;;5114869;28;8820;-60
2021/10/04 02:07:37;;;;;;;;;30.33;30.33;19.10;39.30;;;;;;5114865;28;8766;-60
2021/10/04 02:10:09;;;;;;;;;32.33;31.33;19.10;39.30;;;;;;5114856;28;8846;-61
2021/10/04 02:12:35;;;;;;;;;30.00;30.00;19.10;39.50;;;;;;5114725;28;8832;-60
2021/10/04 02:15:02;;;;;;;;;30.00;30.00;19.10;40.60;;;;;;5115030;28;8789;-61
2021/10/04 02:17:30;;;;;;;;;30.67;30.67;19.00;39.40;;;;;;5114660;28;8753;-60
2021/10/04 02:19:56;;;;;;;;;28.67;28.67;18.90;39.40;;;;;;5096758;28;8861;-61
2021/10/04 02:22:22;;;;;;;;;30.33;30.33;19.00;39.30;;;;;;5114670;28;8845;-61
2021/10/04 02:24:48;;;;;;;;;31.00;31.00;19.00;39.30;;;;;;5114744;28;8822;-62
2021/10/04 02:27:14;;;;;;;;;34.00;32.00;18.90;39.20;;;;;;5096633;28;8804;-60
2021/10/04 02:29:40;;;;;;;;;32.50;31.50;18.80;39.20;;;;;;5114835;28;8750;-59
2021/10/04 02:32:06;;;;;;;;;29.67;29.67;18.80;39.20;;;;;;5114452;28;8803;-61
2021/10/04 02:34:33;;;;;;;;;32.33;32.33;18.80;39.10;;;;;;5114499;28;8776;-61
2021/10/04 02:36:59;;;;;;;;;35.25;33.25;18.70;39.20;;;;;;5114806;28;8769;-61
2021/10/04 02:39:25;;;;;;;;;36.00;35.00;18.70;39.50;;;;;;5096475;28;8817;-61
2021/10/04 02:41:50;;;;;;;;;36.67;35.00;18.70;39.70;;;;;;5114504;28;8826;-60
2021/10/04 02:44:16;;;;;;;;;42.75;38.00;18.60;39.80;;;;;;5114532;28;8805;-61
2021/10/04 02:46:43;;;;;;;;;34.25;33.25;18.50;40.00;;;;;;5114416;28;8765;-61
2021/10/04 02:49:09;;;;;;;;;31.75;31.75;18.50;40.20;;;;;;5114439;28;8788;-60
2021/10/04 02:51:35;;;;;;;;;35.50;34.75;18.50;40.40;;;;;;5114595;28;8797;-60
2021/10/04 02:54:00;;;;;;;;;35.25;34.25;18.40;40.40;;;;;;5114618;28;8773;-60
2021/10/04 02:56:26;;;;;;;;;29.67;29.67;18.40;40.60;;;;;;5114671;28;8848;-61
2021/10/04 02:58:52;;;;;;;;;36.00;35.00;18.50;40.40;;;;;;5114312;28;8818;-61
2021/10/04 03:01:18;;;;;;;;;38.25;36.00;18.50;40.50;;;;;;5114310;28;8766;-61
2021/10/04 03:03:44;;;;;;;;;34.33;34.00;18.50;40.40;;;;;;5114555;28;8769;-60
2021/10/04 03:06:10;;;;;;;;;31.67;31.00;18.40;40.40;;;;;;5114225;28;8770;-61
2021/10/04 03:08:35;;;;;;;;;31.33;31.33;18.50;40.50;;;;;;5116202;28;8820;-61
2021/10/04 03:11:01;;;;;;;;;38.25;35.25;18.40;40.70;;;;;;5116237;27;8759;-60
2021/10/04 03:13:27;;;;;;;;;34.33;33.67;18.40;40.70;;;;;;5117995;28;8755;-60
2021/10/04 03:15:53;;;;;;;;;35.00;33.00;18.40;40.90;;;;;;5117789;28;9401;-60
2021/10/04 03:18:19;;;;;;;;;36.00;35.00;18.40;41.00;;;;;;5117779;28;8755;-61
2021/10/04 03:20:45;;;;;;;;;34.67;33.33;18.30;40.90;;;;;;5117681;28;8800;-61
2021/10/04 03:23:11;;;;;;;;;35.25;33.75;18.30;40.80;;;;;;5117678;28;8767;-61
2021/10/04 03:25:37;;;;;;;;;36.00;33.00;18.30;40.80;;;;;;5117811;28;8794;-61
2021/10/04 03:28:04;;;;;;;;;36.50;34.75;18.40;40.70;;;;;;5116548;28;9600;-60
2021/10/04 03:30:30;;;;;;;;;32.75;31.75;18.30;40.80;;;;;;5117454;28;8795;-61
2021/10/04 03:32:56;;;;;;;;;37.00;35.50;18.40;40.90;;;;;;5117647;28;8811;-60
2021/10/04 03:35:23;;;;;;;;;36.75;34.00;18.40;40.80;;;;;;5117407;28;9473;-61
2021/10/04 03:37:48;;;;;;;;;33.25;32.25;18.40;40.90;;;;;;5117613;28;8771;-61
2021/10/04 03:40:15;;;;;;;;;36.00;34.75;18.40;41.20;;;;;;5116801;28;8818;-60
2021/10/04 03:42:40;;;;;;;;;34.50;33.00;18.40;41.10;;;;;;5117597;28;8816;-60
2021/10/04 03:45:07;;;;;;;;;32.50;31.50;18.30;41.00;;;;;;5117187;28;8805;-60
2021/10/04 03:47:35;;;;;;;;;33.50;32.50;18.30;40.80;;;;;;5117329;28;8781;-60
2021/10/04 03:50:02;;;;;;;;;29.75;29.75;18.30;40.80;;;;;;5117115;28;8773;-60
2021/10/04 03:52:28;;;;;;;;;36.50;34.25;18.30;40.80;;;;;;5117380;28;9416;-60
2021/10/04 03:54:54;;;;;;;;;32.25;32.25;18.30;41.00;;;;;;5116995;28;8769;-61
2021/10/04 03:57:20;;;;;;;;;35.75;34.00;18.20;40.90;;;;;;5117132;28;8773;-61
2021/10/04 03:59:46;;;;;;;;;39.75;36.00;18.30;41.00;;;;;;5098905;28;8795;-60
2021/10/04 04:02:12;;;;;;;;;32.75;32.50;18.30;40.90;;;;;;5116749;28;8769;-60
2021/10/04 04:04:38;;;;;;;;;40.00;37.00;18.20;40.90;;;;;;5116852;28;8816;-60
2021/10/04 04:07:04;;;;;;;;;34.00;33.25;18.20;41.10;;;;;;5116992;28;8749;-60
2021/10/04 04:09:30;;;;;;;;;38.75;35.75;18.20;41.20;;;;;;5117011;28;8746;-60
2021/10/04 04:11:56;;;;;;;;;37.00;34.75;18.20;41.20;;;;;;5116658;28;8839;-61
2021/10/04 04:14:22;;;;;;;;;44.00;39.00;18.10;41.30;;;;;;5116757;28;8916;-60
2021/10/04 04:16:48;;;;;;;;;44.75;40.00;18.00;41.50;;;;;;5116878;28;8754;-60
2021/10/04 04:19:14;;;;;;;;;40.50;37.75;18.00;41.40;;;;;;5116058;28;9438;-60
2021/10/04 04:21:42;;;;;;;;;38.25;36.00;18.00;41.30;;;;;;5116469;28;8867;-61
2021/10/04 04:24:08;;;;;;;;;37.50;34.25;18.00;41.20;;;;;;5116731;28;8765;-60
2021/10/04 04:26:34;;;;;;;;;40.00;36.75;18.00;41.40;;;;;;5116418;28;8757;-61
2021/10/04 04:29:00;;;;;;;;;42.00;37.75;17.90;41.40;;;;;;5116428;28;8766;-60
2021/10/04 04:31:26;;;;;;;;;49.50;42.25;17.90;41.30;;;;;;5116164;28;8808;-60
2021/10/04 04:33:52;;;;;;;;;39.50;37.00;17.80;41.50;;;;;;5116130;28;8765;-60
2021/10/04 04:36:18;;;;;;;;;41.50;37.00;17.80;41.70;;;;;;5116449;28;8846;-60
2021/10/04 04:38:44;;;;;;;;;44.25;39.00;17.70;41.70;;;;;;5113484;28;8746;-61
2021/10/04 04:41:10;;;;;;;;;44.00;39.00;17.80;41.80;;;;;;5115169;28;8789;-61
2021/10/04 04:43:35;;;;;;;;;42.00;38.25;17.70;41.90;;;;;;5116013;28;8765;-60
2021/10/04 04:46:02;;;;;;;;;45.75;39.75;17.80;42.00;;;;;;5116278;28;8943;-61
2021/10/04 04:48:28;;;;;;;;;45.00;38.00;17.70;42.30;;;;;;5115896;28;9539;-61
2021/10/04 04:50:55;;;;;;;;;41.75;38.00;17.70;42.40;;;;;;5116036;28;8773;-60
2021/10/04 04:53:21;;;;;;;;;49.00;43.00;17.70;42.40;;;;;;5116058;28;8769;-60
2021/10/04 04:55:47;;;;;;;;;39.50;37.00;17.80;42.40;;;;;;5116201;28;8811;-60
2021/10/04 04:58:12;;;;;;;;;45.75;39.75;17.80;42.40;;;;;;5115948;28;8761;-60
2021/10/04 05:00:38;;;;;;;;;49.00;42.75;17.70;42.50;;;;;;5116004;28;8753;-59
2021/10/04 05:03:07;;;;;;;;;52.00;44.75;17.70;42.80;;;;;;5112930;27;8773;-59
2021/10/04 05:05:32;;;;;;;;;61.25;51.50;17.70;42.80;;;;;;5115831;28;8792;-59
2021/10/04 05:07:58;;;;;;;;;51.00;44.00;17.70;43.00;;;;;;5114643;28;8761;-60
2021/10/04 05:10:24;;;;;;;;;52.00;45.00;17.70;42.90;;;;;;5113643;28;8754;-59
2021/10/04 05:12:50;;;;;;;;;53.25;46.00;17.70;43.00;;;;;;5114243;28;8786;-59
2021/10/04 05:15:16;;;;;;;;;54.00;46.25;17.70;43.20;;;;;;5114183;28;8824;-66
2021/10/04 05:17:42;;;;;;;;;50.00;42.75;17.70;43.10;;;;;;5113587;28;8776;-60
2021/10/04 05:20:09;;;;;;;;;57.25;47.75;17.80;43.10;;;;;;5112692;28;8766;-59
2021/10/04 05:22:37;;;;;;;;;55.00;46.00;17.80;43.20;;;;;;5114025;28;8762;-59
2021/10/04 05:25:05;;;;;;;;;53.25;45.50;17.70;43.10;;;;;;5095806;28;8782;-59
2021/10/04 05:27:32;;;;;;;;;55.00;47.00;17.70;43.20;;;;;;5113647;28;8765;-60
2021/10/04 05:29:58;;;;;;;;;55.50;47.00;17.80;43.20;;;;;;5113923;28;8773;-60
2021/10/04 05:32:25;;;;;;;;;52.50;45.75;17.70;43.30;;;;;;5093800;28;8817;-59
2021/10/04 05:34:51;;;;;;;;;51.75;44.75;17.80;43.40;;;;;;5113241;28;8738;-59
2021/10/04 05:37:17;;;;;;;;;54.25;46.00;17.90;43.40;;;;;;5111208;28;9375;-59
2021/10/04 05:39:43;;;;;;;;;53.00;45.50;17.80;43.30;;;;;;5112996;28;8801;-59
2021/10/04 05:42:09;;;;;;;;;55.75;47.50;17.90;43.30;;;;;;5113742;28;8836;-59
2021/10/04 05:44:34;;;;;;;;;56.00;46.50;17.90;43.50;;;;;;5113875;28;8778;-59
2021/10/04 05:47:00;;;;;;;;;55.25;46.75;17.90;43.50;;;;;;5113404;28;8789;-59
2021/10/04 05:49:26;;;;;;;;;54.00;46.50;17.90;43.50;;;;;;5112785;28;8766;-59
2021/10/04 05:51:53;;;;;;;;;54.75;45.50;18.00;43.60;;;;;;5113525;28;8840;-59
2021/10/04 05:54:23;;;;;;;;;55.25;46.25;18.10;43.40;;;;;;5113245;28;8765;-59
2021/10/04 05:56:49;;;;;;;;;55.75;46.75;18.10;43.20;;;;;;5113096;28;8754;-59
2021/10/04 05:59:14;;;;;;;;;52.25;45.00;18.10;43.30;;;;;;5114285;28;8894;-59
2021/10/04 06:01:40;;;;;;;;;57.00;47.25;18.20;43.40;;;;;;5112954;28;8794;-59
2021/10/04 06:04:06;;;;;;;;;50.50;43.50;18.30;43.10;;;;;;5111945;28;8770;-58
2021/10/04 06:06:32;;;;;;;;;58.75;49.75;18.30;43.00;;;;;;5113358;28;8742;-59
2021/10/04 06:08:58;;;;;;;;;54.50;46.25;18.30;43.20;;;;;;5113279;28;8861;-59
2021/10/04 06:11:24;;;;;;;;;55.00;47.00;18.30;43.10;;;;;;5112178;28;8817;-59
2021/10/04 06:13:50;;;;;;;;;55.75;47.25;18.40;43.10;;;;;;5113587;28;8770;-58
2021/10/04 06:16:16;;;;;;;;;60.75;50.75;18.40;43.40;;;;;;5112994;28;8762;-59
2021/10/04 06:18:42;;;;;;;;;56.00;47.75;18.40;43.00;;;;;;5112777;28;9539;-59
2021/10/04 06:21:09;;;;;;;;;53.50;44.50;18.50;42.90;;;;;;5113462;28;8750;-59
2021/10/04 06:23:34;;;;;;;;;52.50;45.50;18.60;42.70;;;;;;5113150;28;8773;-60
2021/10/04 06:26:03;;;;;;;;;54.00;45.00;18.70;42.70;;;;;;5111160;28;8757;-60
2021/10/04 06:28:29;;;;;;;;;50.00;42.00;18.70;42.50;;;;;;5112663;28;8770;-58
2021/10/04 06:30:55;;;;;;;;;42.50;38.00;18.70;42.50;;;;;;5112977;28;8781;-59
2021/10/04 06:33:21;;;;;;;;;50.25;43.25;18.70;42.30;;;;;;5112524;28;8769;-59
2021/10/04 06:35:47;;;;;;;;;53.25;45.25;18.80;42.30;;;;;;5112632;28;8766;-59
2021/10/04 06:38:13;;;;;;;;;47.00;40.75;18.90;43.10;;;;;;5113104;28;8757;-59
2021/10/04 06:40:39;;;;;;;;;45.00;39.25;18.90;41.90;;;;;;5113467;28;8797;-59
2021/10/04 06:43:05;;;;;;;;;48.00;41.75;18.90;42.00;;;;;;5115432;28;8788;-59
2021/10/04 06:45:31;;;;;;;;;50.00;43.00;18.90;41.80;;;;;;5116651;28;8801;-59
2021/10/04 06:47:57;;;;;;;;;46.50;40.50;18.90;41.70;;;;;;5116718;28;8834;-59
2021/10/04 06:50:23;;;;;;;;;48.75;41.75;18.90;41.80;;;;;;5116407;28;8769;-59
2021/10/04 06:52:49;;;;;;;;;51.00;44.00;19.00;41.90;;;;;;5115962;28;8765;-59
2021/10/04 06:55:15;;;;;;;;;51.00;44.25;19.10;41.80;;;;;;5116193;28;8835;-59
2021/10/04 06:57:41;;;;;;;;;50.25;43.25;19.20;41.70;;;;;;5116220;28;8781;-59
2021/10/04 07:00:11;;;;;;;;;49.50;42.75;19.30;41.60;;;;;;5113956;28;8862;-60
2021/10/04 07:02:38;;;;;;;;;50.00;43.25;19.40;41.60;;;;;;5115395;28;8815;-59
2021/10/04 07:05:05;;;;;;;;;48.50;41.50;19.40;41.60;;;;;;5116621;28;8773;-60
2021/10/04 07:07:31;;;;;;;;;45.00;39.50;19.40;41.30;;;;;;5096928;28;8777;-60
2021/10/04 07:09:57;;;;;;;;;46.50;39.75;19.50;41.20;;;;;;5114873;28;8758;-60
2021/10/04 07:12:23;;;;;;;;;48.50;42.00;19.50;41.30;;;;;;5114771;28;8781;-60
2021/10/04 07:14:51;;;;;;;;;48.00;41.50;19.60;41.50;;;;;;5116878;28;8778;-60
2021/10/04 07:17:17;;;;;;;;;46.75;41.00;19.70;41.50;;;;;;5113283;28;8753;-60
2021/10/04 07:19:43;;;;;;;;;49.75;42.75;19.70;41.20;;;;;;5116349;28;8760;-60
2021/10/04 07:22:09;;;;;;;;;169.00;169.00;19.70;41.40;;;;;;5116238;28;9432;-60
2021/10/04 07:24:35;;;;;;;;;65.25;54.00;19.90;41.10;;;;;;5116195;28;8734;-60
2021/10/04 07:27:03;;;;;;;;;58.50;49.50;19.90;40.80;;;;;;5115405;28;8750;-60
2021/10/04 07:29:30;;;;;;;;;54.75;45.75;19.90;40.60;;;;;;5115186;28;8785;-60
2021/10/04 07:31:56;;;;;;;;;47.00;41.00;20.00;40.40;;;;;;5115966;28;8805;-60
2021/10/04 07:34:22;;;;;;;;;44.50;39.25;20.10;40.80;;;;;;5114067;28;8861;-59
2021/10/04 07:36:48;;;;;;;;;52.75;44.75;20.10;40.60;;;;;;5113891;28;9419;-60
2021/10/04 07:39:15;;;;;;;;;51.00;44.00;20.20;40.60;;;;;;5114274;28;8962;-61
2021/10/04 07:41:43;;;;;;;;;50.25;43.25;20.30;40.30;;;;;;5112819;28;8754;-60
2021/10/04 07:44:09;;;;;;;;;49.00;42.00;20.40;40.30;;;;;;5115479;28;8817;-60
2021/10/04 07:46:35;;;;;;;;;49.25;42.25;20.40;40.30;;;;;;5115338;28;9400;-60
2021/10/04 07:49:01;;;;;;;;;48.25;42.25;20.50;40.00;;;;;;5116484;28;8777;-60
2021/10/04 07:51:27;;;;;;;;;52.75;45.50;20.60;39.50;;;;;;5116819;28;8840;-59
2021/10/04 07:53:53;;;;;;;;;49.00;42.00;20.70;39.50;;;;;;5116767;28;8758;-59
2021/10/04 07:56:19;;;;;;;;;55.25;46.25;20.80;39.30;;;;;;5116649;28;8743;-59
2021/10/04 07:58:45;;;;;;;;;47.50;40.50;20.80;39.20;;;;;;5115950;28;8762;-59
2021/10/04 08:01:13;;;;;;;;;46.50;40.00;20.90;39.10;;;;;;5114391;27;8766;-59
2021/10/04 08:03:40;;;;;;;;;47.00;40.25;20.90;39.40;;;;;;5116602;28;8784;-59
2021/10/04 08:06:08;;;;;;;;;50.00;42.00;21.00;39.00;;;;;;5117000;28;9423;-58
2021/10/04 08:08:34;;;;;;;;;48.75;42.50;21.00;39.00;;;;;;5116986;28;9419;-59
2021/10/04 08:11:00;;;;;;;;;52.00;43.75;21.10;38.80;;;;;;5116678;28;8834;-59
2021/10/04 08:13:25;;;;;;;;;41.00;36.00;21.20;39.20;;;;;;5116831;28;8794;-59
2021/10/04 08:15:51;;;;;;;;;47.00;40.50;21.30;38.90;;;;;;5116618;28;8790;-59
2021/10/04 08:18:17;;;;;;;;;40.33;37.33;21.40;38.90;;;;;;5114157;28;8766;-59
2021/10/04 08:20:43;;;;;;;;;44.00;39.00;21.50;38.90;;;;;;5115848;28;8757;-58
2021/10/04 08:23:10;;;;;;;;;39.00;35.67;21.50;38.70;;;;;;5114369;28;8787;-59
2021/10/04 08:25:36;;;;;;;;;47.00;40.67;21.40;38.80;;;;;;5114108;28;8794;-61
2021/10/04 08:28:02;;;;;;;;;42.33;37.33;21.50;39.00;;;;;;5116507;28;8784;-59
2021/10/04 08:30:28;;;;;;;;;39.67;36.67;21.70;38.80;;;;;;5115755;28;8888;-59
2021/10/04 08:32:54;;;;;;;;;38.67;35.67;21.70;39.20;;;;;;5115306;28;8970;-59
2021/10/04 08:35:20;;;;;;;;;47.25;41.00;21.70;38.90;;;;;;5116257;28;8784;-59
2021/10/04 08:37:48;;;;;;;;;44.33;39.33;21.80;38.90;;;;;;5115915;28;8815;-58
2021/10/04 08:40:15;;;;;;;;;38.00;35.00;21.80;38.90;;;;;;5115586;28;8782;-61
2021/10/04 08:42:44;;;;;;;;;40.33;37.00;21.90;39.00;;;;;;5115690;28;8809;-61
2021/10/04 08:45:10;;;;;;;;;38.33;35.33;22.00;39.20;;;;;;5116336;28;8801;-61
2021/10/04 08:47:38;;;;;;;;;34.67;33.33;22.20;39.60;;;;;;5115575;28;8862;-61
2021/10/04 08:50:07;;;;;;;;;37.00;35.00;22.40;38.90;;;;;;5115634;28;8777;-61
2021/10/04 08:52:33;;;;;;;;;38.67;35.33;22.60;38.10;;;;;;5115558;28;8894;-62
2021/10/04 08:54:59;;;;;;;;;37.00;34.67;22.60;38.10;;;;;;5115672;28;8776;-64
2021/10/04 08:57:25;;;;;;;;;32.33;32.33;22.70;38.30;;;;;;5115199;28;8892;-63
2021/10/04 08:59:51;;;;;;;;;36.33;34.33;22.60;38.00;;;;;;5116216;28;8785;-64
2021/10/04 09:02:29;;;;;;;;;33.67;32.33;22.60;38.30;;;;;;5114268;28;8834;-64
2021/10/04 09:05:11;;;;;;;;;29.67;29.67;22.70;38.10;;;;;;5100865;28;9464;-64
2021/10/04 09:07:43;;;;;;;;;29.00;29.00;22.70;37.70;;;;;;5115433;28;8888;-64
2021/10/04 09:10:12;;;;;;;;;34.00;32.00;22.90;37.80;;;;;;5115560;28;8772;-63
2021/10/04 09:12:47;;;;;;;;;29.67;29.67;23.10;37.60;;;;;;5114712;28;8790;-63
2021/10/04 09:15:32;;;;;;;;;31.00;31.00;23.30;37.60;;;;;;5112844;28;8770;-65
2021/10/04 09:18:08;;;;;;;;;37.00;34.00;23.40;37.20;;;;;;5113152;28;9407;-64
2021/10/04 09:21:05;;;;;;;;;34.33;33.33;23.60;37.00;;;;;;5115274;28;8749;-64
2021/10/04 09:23:56;;;;;;;;;28.33;28.33;23.50;36.90;;;;;;5114905;28;8742;-65
2021/10/04 09:26:25;;;;;;;;;21.00;21.00;23.70;37.10;;;;;;5114789;28;8763;-67
2021/10/04 09:29:11;;;;;;;;;30.00;30.00;23.80;36.50;;;;;;5114512;28;8835;-64
2021/10/04 09:31:43;;;;;;;;;26.67;26.67;24.00;35.80;;;;;;5111552;28;8914;-62
2021/10/04 09:34:09;;;;;;;;;24.67;24.67;23.90;35.90;;;;;;5097171;28;8770;-63
2021/10/04 09:36:38;;;;;;;;;29.67;29.67;24.00;36.10;;;;;;5113095;27;8934;-63
2021/10/04 09:39:15;;;;;;;;;24.33;24.33;23.80;35.50;;;;;;5113299;28;8769;-65
2021/10/04 09:42:11;;;;;;;;;27.00;27.00;24.00;35.20;;;;;;5112586;28;8777;-63
2021/10/04 09:44:48;;;;;;;;;27.00;27.00;24.30;35.10;;;;;;5104810;28;8810;-61
2021/10/04 09:47:31;;;;;;;;;29.67;29.67;24.40;34.90;;;;;;5114531;28;8778;-63
2021/10/04 09:50:09;;;;;;;;;34.67;33.00;24.50;34.80;;;;;;5113982;28;8754;-63
2021/10/04 09:52:34;;;;;;;;;29.67;29.67;24.70;34.50;;;;;;5112973;28;8809;-65
2021/10/04 09:55:00;;;;;;;;;29.33;29.33;24.90;34.20;;;;;;5113686;28;8750;-64
2021/10/04 09:57:26;;;;;;;;;33.33;32.33;25.00;34.00;;;;;;5114271;28;8735;-64
2021/10/04 09:59:52;;;;;;;;;33.67;32.67;25.00;34.00;;;;;;5112269;28;8761;-61
2021/10/04 10:02:18;;;;;;;;;34.67;32.67;25.20;33.20;;;;;;5112699;28;8762;-62
2021/10/04 10:04:47;;;;;;;;;35.00;33.33;25.50;32.80;;;;;;5113321;28;8750;-63
2021/10/04 10:07:13;;;;;;;;;42.67;37.33;25.80;32.70;;;;;;5112991;28;8746;-64
2021/10/04 10:09:41;;;;;;;;;40.33;35.33;26.10;32.40;;;;;;5114356;28;8779;-63
2021/10/04 10:12:08;;;;;;;;;39.67;35.33;26.40;32.00;;;;;;5114581;28;8831;-63
2021/10/04 10:14:46;;;;;;;;;37.67;35.00;26.60;31.20;;;;;;5114965;28;8936;-64
2021/10/04 10:17:29;;;;;;;;;39.67;35.67;26.90;31.10;;;;;;5114929;28;8868;-64
2021/10/04 10:19:58;;;;;;;;;40.00;36.00;27.30;30.60;;;;;;5118901;28;8790;-65
2021/10/04 10:22:29;;;;;;;;;43.67;38.00;27.40;31.00;;;;;;5118686;28;8758;-64
2021/10/04 10:24:56;;;;;;;;;42.33;37.33;27.80;30.20;;;;;;5119168;28;8758;-65
2021/10/04 10:27:39;;;;;;;;;30.33;30.33;28.10;29.40;;;;;;5118694;28;8770;-63
2021/10/04 10:30:19;;;;;;;;;38.33;35.33;28.60;29.00;;;;;;5118899;28;8754;-65
2021/10/04 10:32:45;;;;;;;;;37.33;34.00;28.70;28.60;;;;;;5112228;28;8809;-62
2021/10/04 10:35:11;;;;;;;;;31.67;30.67;29.20;28.30;;;;;;5118745;28;8785;-64
2021/10/04 10:37:52;;;;;;;;;36.33;33.33;29.60;28.10;;;;;;5118752;28;8882;-63
2021/10/04 10:40:21;;;;;;;;;25.00;25.00;30.00;27.50;;;;;;5118228;28;8874;-63
2021/10/04 10:43:07;;;;;;;;;33.00;32.00;30.10;26.90;;;;;;5118576;28;8777;-64
2021/10/04 10:45:47;;;;;;;;;26.67;26.67;29.80;26.30;;;;;;5118675;28;8874;-62
2021/10/04 10:48:14;;;;;;;;;27.67;27.67;30.00;26.40;;;;;;5118296;28;8774;-64
2021/10/04 10:50:49;;;;;;;;;26.00;26.00;30.50;26.10;;;;;;5118382;28;9423;-62
2021/10/04 10:53:16;;;;;;;;;27.67;27.67;30.80;25.60;;;;;;5118019;28;8801;-63
2021/10/04 10:55:46;;;;;;;;;28.00;27.33;30.70;25.30;;;;;;5118072;28;8860;-63
2021/10/04 10:58:14;;;;;;;;;27.00;27.00;30.80;25.50;;;;;;5117965;28;8866;-64
2021/10/04 11:00:44;;;;;;;;;30.67;30.33;31.30;24.70;;;;;;5117340;28;8772;-63
2021/10/04 11:03:11;;;;;;;;;23.67;23.67;31.70;24.50;;;;;;5115574;28;8808;-64
2021/10/04 11:05:41;;;;;;;;;20.67;20.67;32.60;23.80;;;;;;5107983;28;11479;-63
2021/10/04 11:08:07;;;;;;;;;22.67;22.67;36.10;20.90;;;;;;5097614;28;11439;-66
2021/10/04 11:10:53;;;;;;;;;25.00;25.00;39.40;17.90;;;;;;5097297;28;11528;-63
2021/10/04 11:13:25;;;;;;;;;26.67;26.00;43.00;17.00;;;;;;5096893;28;11506;-65
2021/10/04 11:15:52;;;;;;;;;20.67;20.67;44.90;15.00;;;;;;5097284;28;11462;-67
2021/10/04 11:18:19;;;;;;;;;25.00;25.00;47.50;14.00;;;;;;5101059;28;11443;-66
2021/10/04 11:20:45;;;;;;;;;25.67;25.67;49.20;12.90;;;;;;5117508;28;11474;-66
2021/10/04 11:23:12;;;;;;;;;25.67;25.67;50.90;12.10;;;;;;5117422;28;11426;-67
2021/10/04 11:25:50;;;;;;;;;21.75;21.75;51.50;11.40;;;;;;5116760;28;8793;-64
2021/10/04 11:28:20;;;;;;;;;17.25;17.25;51.20;11.10;;;;;;5116050;28;11470;-61
2021/10/04 11:30:56;;;;;;;;;23.25;23.25;51.60;10.60;;;;;;5117215;28;11483;-67
2021/10/04 11:33:23;;;;;;;;;18.00;18.00;53.00;10.70;;;;;;5117307;28;11456;-64
2021/10/04 11:36:16;;;;;;;;;21.00;21.00;53.00;10.30;;;;;;5117263;28;11449;-64
2021/10/04 11:38:57;;;;;;;;;23.25;23.25;53.80;10.00;;;;;;5109109;28;11468;-62
2021/10/04 11:41:38;;;;;;;;;17.00;17.00;54.60;9.60;;;;;;5096761;28;11447;-62
2021/10/04 11:44:06;;;;;;;;;15.00;15.00;53.60;9.30;;;;;;5096768;28;11473;-62
2021/10/04 11:46:37;;;;;;;;;17.75;17.75;53.50;9.30;;;;;;5096892;28;12073;-63
2021/10/04 11:49:14;;;;;;;;;12.50;12.50;54.40;9.40;;;;;;5101493;28;11463;-61
2021/10/04 11:51:47;;;;;;;;;15.75;15.75;55.30;9.20;;;;;;5117039;28;11462;-64
2021/10/04 11:54:14;;;;;;;;;11.00;11.00;55.80;8.90;;;;;;5117156;28;12152;-61
2021/10/04 11:56:41;;;;;;;;;17.00;17.00;56.10;8.60;;;;;;5117079;28;12118;-63
2021/10/04 11:59:08;;;;;;;;;16.25;16.25;56.50;8.50;;;;;;5116725;28;11561;-63
2021/10/04 12:01:40;;;;;;;;;13.00;13.00;56.60;8.60;;;;;;5116808;28;12243;-62
2021/10/04 12:04:11;;;;;;;;;14.75;14.75;56.80;8.10;;;;;;5116749;28;11440;-65
2021/10/04 12:06:42;;;;;;;;;17.25;17.25;57.00;8.00;;;;;;5116650;28;11437;-62
2021/10/04 12:09:14;;;;;;;;;12.75;12.75;57.30;8.30;;;;;;5116585;28;11439;-63
2021/10/04 12:11:55;;;;;;;;;21.25;21.25;57.20;7.90;;;;;;5116445;28;11454;-63
2021/10/04 12:14:23;;;;;;;;;18.25;18.25;57.50;7.90;;;;;;5114282;28;12181;-63
2021/10/04 12:16:50;;;;;;;;;16.75;16.75;57.40;7.70;;;;;;5114429;28;11493;-67
2021/10/04 12:19:17;;;;;;;;;17.33;17.33;57.70;7.80;;;;;;5114406;28;11401;-64
2021/10/04 12:21:50;;;;;;;;;17.00;17.00;58.00;7.70;;;;;;5115122;28;11656;-64
2021/10/04 12:24:28;;;;;;;;;17.00;17.00;57.80;7.70;;;;;;5114904;28;12090;-63
2021/10/04 12:27:14;;;;;;;;;18.33;18.33;58.00;7.90;;;;;;5114081;28;11600;-65
2021/10/04 12:29:43;;;;;;;;;17.67;17.67;58.20;7.60;;;;;;5113434;28;11525;-62
2021/10/04 12:32:28;;;;;;;;;18.33;18.33;58.40;7.50;;;;;;5113845;28;12116;-61
2021/10/04 12:35:14;;;;;;;;;17.00;17.00;58.70;7.20;;;;;;5111394;28;11415;-65
2021/10/04 12:37:58;;;;;;;;;14.33;14.33;59.30;7.50;;;;;;5113622;28;8753;-67
2021/10/04 12:40:31;;;;;;;;;19.00;19.00;59.00;7.20;;;;;;5112303;28;11468;-63